Time;durP1;ratioP1;P1;durP2;ratioP2;P2;SDS_P1;SDS_P2;PMS_P1;PMS_P2;Temp;Humidity;BMP_temperature;BMP_pressure;BME280_temperature;BME280_humidity;BME280_pressure;Samples;Min_cycle;Max_cycle;Signal;HPM_P1;HPM_P2
2023/01/21 00:00:51;;;;;;;19.70;13.93;;;0.80;1.00;;;;;;6282638;28;20252;-57
2023/01/21 00:03:56;;;;;;;23.53;13.50;;;0.60;1.00;;;;;;6289011;28;20233;-60
2023/01/21 00:06:59;;;;;;;18.33;13.90;;;0.80;1.00;;;;;;6275294;28;20233;-57
2023/01/21 00:10:02;;;;;;;22.80;13.63;;;0.60;1.00;;;;;;6283225;28;20241;-57
2023/01/21 00:13:05;;;;;;;17.30;13.00;;;0.50;1.00;;;;;;6283795;28;20233;-57
2023/01/21 00:16:13;;;;;;;19.27;13.23;;;0.50;1.00;;;;;;6259843;28;20226;-56
2023/01/21 00:19:18;;;;;;;15.20;12.47;;;0.50;1.00;;;;;;6259507;28;20237;-56
2023/01/21 00:22:21;;;;;;;19.97;12.90;;;0.60;1.00;;;;;;6263279;28;20360;-56
2023/01/21 00:25:25;;;;;;;14.50;12.17;;;0.80;1.00;;;;;;6263307;28;20229;-56
2023/01/21 00:28:29;;;;;;;13.40;11.27;;;0.60;1.00;;;;;;6262778;28;20249;-56
2023/01/21 00:31:32;;;;;;;16.47;10.90;;;0.50;1.00;;;;;;6263010;28;20261;-56
2023/01/21 00:34:36;;;;;;;14.70;11.87;;;0.70;1.00;;;;;;6292279;28;20237;-56
2023/01/21 00:37:39;;;;;;;18.00;12.20;;;0.70;1.00;;;;;;6288037;28;20652;-57
2023/01/21 00:40:42;;;;;;;16.17;11.70;;;0.50;1.00;;;;;;6280289;28;20261;-56
2023/01/21 00:43:45;;;;;;;20.67;11.90;;;0.60;1.00;;;;;;6263487;28;20484;-58
2023/01/21 00:46:48;;;;;;;12.87;10.33;;;0.40;1.00;;;;;;6265568;28;20655;-60
2023/01/21 00:49:53;;;;;;;14.57;11.27;;;0.60;1.00;;;;;;6268067;28;20320;-56
2023/01/21 00:52:56;;;;;;;13.73;10.70;;;0.80;1.00;;;;;;6259046;28;20234;-57
2023/01/21 00:56:00;;;;;;;14.67;10.80;;;0.40;1.00;;;;;;6263280;28;20617;-56
2023/01/21 00:59:03;;;;;;;16.93;11.00;;;0.60;1.00;;;;;;6262559;28;20234;-56
2023/01/21 01:02:06;;;;;;;18.03;11.60;;;0.30;1.00;;;;;;6282718;28;20228;-56
2023/01/21 01:05:12;;;;;;;15.97;11.13;;;0.40;1.00;;;;;;6283293;28;20718;-56
2023/01/21 01:08:15;;;;;;;17.77;10.87;;;0.50;1.00;;;;;;6279416;28;20264;-56
2023/01/21 01:11:20;;;;;;;12.23;10.60;;;0.40;1.00;;;;;;6286905;28;20248;-56
2023/01/21 01:14:24;;;;;;;14.17;11.43;;;0.50;1.00;;;;;;6287454;28;20320;-55
2023/01/21 01:17:27;;;;;;;13.27;10.77;;;0.40;1.00;;;;;;6279782;28;20233;-56
2023/01/21 01:20:31;;;;;;;13.13;10.83;;;0.50;1.00;;;;;;6261920;28;20242;-56
2023/01/21 01:23:34;;;;;;;17.30;11.73;;;0.50;1.00;;;;;;6261934;28;20887;-56
2023/01/21 01:26:37;;;;;;;11.67;10.40;;;0.60;1.00;;;;;;6261671;28;20242;-58
2023/01/21 01:29:43;;;;;;;14.40;9.30;;;0.40;1.00;;;;;;6260998;28;20711;-56
2023/01/21 01:32:47;;;;;;;11.23;10.07;;;0.60;1.00;;;;;;6276351;28;20240;-56
2023/01/21 01:35:52;;;;;;;11.90;9.80;;;0.70;1.00;;;;;;6286674;28;20232;-56
2023/01/21 01:38:55;;;;;;;16.10;10.40;;;0.50;1.00;;;;;;6284904;28;20237;-56
2023/01/21 01:41:59;;;;;;;13.50;10.40;;;0.60;1.00;;;;;;6286144;28;20236;-56
2023/01/21 01:45:06;;;;;;;15.33;10.87;;;0.80;1.00;;;;;;6285084;28;20241;-56
2023/01/21 01:48:11;;;;;;;15.83;11.10;;;0.50;1.00;;;;;;6262415;28;20232;-56
2023/01/21 01:51:19;;;;;;;14.27;11.50;;;0.50;1.00;;;;;;6261290;28;20234;-56
2023/01/21 01:54:26;;;;;;;17.53;12.63;;;0.60;1.00;;;;;;6261123;28;20588;-56
2023/01/21 01:57:34;;;;;;;18.63;13.23;;;0.50;1.00;;;;;;6261329;28;20248;-55
2023/01/21 02:00:37;;;;;;;19.00;13.50;;;0.60;1.00;;;;;;6282660;28;20237;-56
2023/01/21 02:03:49;;;;;;;19.30;13.47;;;0.60;1.00;;;;;;6291960;28;20244;-56
2023/01/21 02:06:55;;;;;;;20.47;14.03;;;0.70;1.00;;;;;;6284289;28;20416;-56
2023/01/21 02:09:58;;;;;;;23.37;14.17;;;0.70;1.00;;;;;;6264866;28;20618;-55
2023/01/21 02:13:02;;;;;;;20.93;13.77;;;0.60;1.00;;;;;;6260543;28;20605;-56
2023/01/21 02:16:42;;;;;;;20.97;14.00;;;0.70;1.00;;;;;;6260328;28;20229;-56
2023/01/21 02:20:14;;;;;;;23.73;14.60;;;0.70;1.00;;;;;;6224497;28;20242;-56
2023/01/21 02:23:30;;;;;;;25.60;14.83;;;0.80;1.00;;;;;;6267512;28;20599;-56
2023/01/21 02:27:13;;;;;;;21.50;14.90;;;0.60;1.00;;;;;;6285769;28;20233;-56
2023/01/21 02:30:50;;;;;;;21.50;14.30;;;0.70;1.00;;;;;;6284343;28;20609;-57
2023/01/21 02:34:01;;;;;;;27.30;15.13;;;0.70;1.00;;;;;;6283991;28;20305;-57
2023/01/21 02:37:12;;;;;;;25.50;15.37;;;0.70;1.00;;;;;;6284344;28;20233;-57
2023/01/21 02:40:20;;;;;;;19.07;13.27;;;0.80;1.00;;;;;;6278592;28;20234;-56
2023/01/21 02:43:29;;;;;;;21.17;14.03;;;0.60;1.00;;;;;;6260064;28;20280;-56
2023/01/21 02:46:40;;;;;;;22.77;14.93;;;0.60;1.00;;;;;;6260594;28;22245;-57
2023/01/21 02:49:48;;;;;;;21.17;14.03;;;0.80;1.00;;;;;;6260167;28;20402;-57
2023/01/21 02:52:55;;;;;;;20.80;13.90;;;0.90;1.00;;;;;;6260208;28;20234;-56
2023/01/21 02:56:04;;;;;;;19.20;14.07;;;0.90;1.00;;;;;;6259708;28;20422;-61
2023/01/21 02:59:08;;;;;;;24.13;14.57;;;1.10;1.00;;;;;;6263751;28;20476;-56
2023/01/21 03:02:19;;;;;;;21.87;14.13;;;0.70;1.00;;;;;;6267576;28;20729;-56
2023/01/21 03:05:29;;;;;;;23.57;14.80;;;0.80;1.00;;;;;;6284953;28;20245;-56
2023/01/21 03:08:40;;;;;;;18.40;14.23;;;0.80;1.00;;;;;;6281840;28;20244;-56
2023/01/21 03:11:47;;;;;;;21.40;13.90;;;0.70;1.00;;;;;;6279077;28;20241;-56
2023/01/21 03:18:25;;;;;;;23.67;15.50;;;0.90;1.00;;;;;;6259362;28;20230;-56
2023/01/21 03:21:32;;;;;;;20.50;13.90;;;1.00;1.00;;;;;;6258279;28;20325;-57
2023/01/21 03:24:38;;;;;;;21.43;14.70;;;1.00;1.00;;;;;;6258618;28;20242;-56
2023/01/21 03:27:44;;;;;;;23.23;13.57;;;0.90;1.00;;;;;;6245810;28;20614;-57
2023/01/21 03:30:52;;;;;;;22.03;14.33;;;1.00;1.00;;;;;;6283024;28;20241;-56
2023/01/21 03:33:59;;;;;;;19.27;14.67;;;0.90;1.00;;;;;;6290472;28;20257;-57
2023/01/21 03:37:07;;;;;;;26.07;13.90;;;0.90;1.00;;;;;;6268190;28;20225;-57
2023/01/21 03:40:20;;;;;;;20.23;14.17;;;0.90;1.00;;;;;;6282309;28;20706;-57
2023/01/21 03:43:23;;;;;;;18.97;13.70;;;1.00;1.00;;;;;;6277556;28;20245;-57
2023/01/21 03:46:36;;;;;;;21.57;14.03;;;0.90;1.00;;;;;;6258484;28;20229;-57
2023/01/21 03:49:44;;;;;;;21.17;14.07;;;1.00;1.00;;;;;;6258378;28;20268;-56
2023/01/21 03:52:49;;;;;;;19.13;13.23;;;0.90;1.00;;;;;;6258296;28;20233;-56
2023/01/21 03:55:52;;;;;;;16.80;12.57;;;1.00;1.00;;;;;;6258069;28;20226;-56
2023/01/21 03:58:55;;;;;;;21.47;12.57;;;1.10;1.00;;;;;;6258396;28;20245;-57
2023/01/21 04:01:58;;;;;;;18.57;13.23;;;1.00;1.00;;;;;;6263153;28;20238;-57
2023/01/21 04:05:01;;;;;;;20.10;13.00;;;1.10;1.00;;;;;;6286400;28;20329;-57
2023/01/21 04:08:06;;;;;;;18.53;13.13;;;1.10;1.00;;;;;;6284196;28;20233;-56
2023/01/21 04:11:09;;;;;;;14.17;11.90;;;1.00;1.00;;;;;;6268941;28;20238;-56
2023/01/21 04:14:12;;;;;;;15.07;11.97;;;1.10;1.00;;;;;;6260323;28;20229;-58
2023/01/21 04:17:15;;;;;;;15.27;11.70;;;1.00;1.00;;;;;;6259022;28;20229;-56
2023/01/21 04:20:18;;;;;;;16.03;12.20;;;1.10;1.00;;;;;;6258949;28;20386;-58
2023/01/21 04:23:23;;;;;;;18.40;11.97;;;1.20;1.00;;;;;;6258100;28;20242;-57
2023/01/21 04:26:26;;;;;;;15.50;11.37;;;1.00;1.00;;;;;;6258445;28;20234;-56
2023/01/21 04:29:29;;;;;;;11.87;10.67;;;1.00;1.00;;;;;;6258152;28;20230;-56
2023/01/21 04:32:32;;;;;;;13.70;10.83;;;1.00;1.00;;;;;;6257880;28;22650;-58
2023/01/21 04:35:35;;;;;;;14.43;11.27;;;1.10;1.00;;;;;;6283207;28;20506;-57
2023/01/21 04:38:40;;;;;;;12.30;10.60;;;0.80;1.00;;;;;;6281276;28;20233;-58
2023/01/21 04:41:43;;;;;;;10.63;9.53;;;0.90;1.00;;;;;;6262515;28;20619;-57
2023/01/21 04:44:46;;;;;;;11.10;10.10;;;1.10;1.00;;;;;;6286595;28;20244;-58
2023/01/21 04:47:49;;;;;;;11.90;9.43;;;1.10;1.00;;;;;;6287171;28;20636;-57
2023/01/21 04:50:52;;;;;;;10.73;9.57;;;1.00;1.00;;;;;;6277521;28;20761;-57
2023/01/21 04:53:57;;;;;;;11.33;10.13;;;1.10;1.00;;;;;;6281550;28;20423;-58
2023/01/21 04:57:00;;;;;;;12.33;10.13;;;1.10;1.00;;;;;;6282019;28;20225;-56
2023/01/21 05:00:05;;;;;;;11.63;10.53;;;0.90;1.00;;;;;;6274069;28;20233;-56
2023/01/21 05:03:08;;;;;;;12.90;10.60;;;1.00;1.00;;;;;;6273469;28;20287;-56
2023/01/21 05:06:11;;;;;;;11.20;10.07;;;0.80;1.00;;;;;;6279875;28;20237;-56
2023/01/21 05:09:15;;;;;;;13.10;9.97;;;0.70;1.00;;;;;;6287911;28;20237;-56
2023/01/21 05:12:19;;;;;;;12.33;10.07;;;0.70;1.00;;;;;;6286879;28;20612;-57
2023/01/21 05:15:22;;;;;;;11.93;9.90;;;0.80;1.00;;;;;;6290334;28;20633;-56
2023/01/21 05:18:25;;;;;;;12.27;10.20;;;0.80;1.00;;;;;;6285917;28;20241;-56
2023/01/21 05:21:28;;;;;;;12.17;10.00;;;0.70;1.00;;;;;;6285590;28;20698;-57
2023/01/21 05:24:32;;;;;;;10.73;9.63;;;0.90;1.00;;;;;;6279316;28;20648;-57
2023/01/21 05:27:35;;;;;;;14.00;11.17;;;0.80;1.00;;;;;;6264837;28;20374;-56
2023/01/21 05:30:38;;;;;;;12.20;10.40;;;0.90;1.00;;;;;;6285030;28;20383;-57
2023/01/21 05:33:45;;;;;;;10.30;9.20;;;0.80;1.00;;;;;;6303111;28;20315;-57
2023/01/21 05:36:49;;;;;;;11.80;9.67;;;1.00;1.00;;;;;;6288466;28;20234;-56
2023/01/21 05:39:53;;;;;;;12.57;10.53;;;1.20;1.00;;;;;;6282686;28;20237;-57
2023/01/21 05:42:56;;;;;;;12.53;10.70;;;1.00;1.00;;;;;;6285292;28;20722;-56
2023/01/21 05:45:59;;;;;;;11.77;10.13;;;1.00;1.00;;;;;;6283906;28;20233;-57
2023/01/21 05:49:02;;;;;;;13.13;10.60;;;0.90;1.00;;;;;;6280986;28;20244;-56
2023/01/21 05:52:05;;;;;;;12.57;10.33;;;1.10;1.00;;;;;;6286417;28;20305;-57
2023/01/21 05:55:10;;;;;;;14.80;9.80;;;1.00;1.00;;;;;;6290757;28;20303;-56
2023/01/21 05:58:13;;;;;;;12.27;10.23;;;1.20;1.00;;;;;;6286707;28;20236;-57
2023/01/21 06:01:16;;;;;;;11.97;10.50;;;1.00;1.00;;;;;;6293056;28;20225;-57
2023/01/21 06:04:19;;;;;;;12.33;10.50;;;0.90;1.00;;;;;;6290634;28;20375;-56
2023/01/21 06:07:25;;;;;;;14.87;10.90;;;1.10;1.00;;;;;;6283474;28;20244;-56
2023/01/21 06:10:30;;;;;;;14.87;10.70;;;1.00;1.00;;;;;;6291373;28;20233;-57
2023/01/21 06:13:33;;;;;;;15.37;10.97;;;1.30;1.00;;;;;;6275220;28;20405;-57
2023/01/21 06:16:36;;;;;;;12.67;10.40;;;1.10;1.00;;;;;;6287818;28;20240;-56
2023/01/21 06:19:39;;;;;;;17.00;12.27;;;1.00;1.00;;;;;;6278716;28;20246;-55
2023/01/21 06:22:42;;;;;;;18.50;12.43;;;1.00;1.00;;;;;;6291718;28;20292;-56
2023/01/21 06:25:46;;;;;;;16.97;12.83;;;1.10;1.00;;;;;;6282315;28;20248;-56
2023/01/21 06:28:49;;;;;;;17.20;12.50;;;1.00;1.00;;;;;;6283756;28;20261;-57
2023/01/21 06:31:53;;;;;;;18.90;13.50;;;1.10;1.00;;;;;;6286536;28;20710;-57
2023/01/21 06:34:56;;;;;;;22.13;13.67;;;1.10;1.00;;;;;;6286214;28;20718;-57
2023/01/21 06:37:59;;;;;;;21.10;13.73;;;1.30;1.00;;;;;;6287093;28;20232;-56
2023/01/21 06:41:03;;;;;;;21.63;13.97;;;1.10;1.00;;;;;;6281156;28;20227;-56
2023/01/21 06:44:07;;;;;;;20.87;14.70;;;1.20;1.00;;;;;;6283289;28;20395;-57
2023/01/21 06:47:10;;;;;;;21.77;14.47;;;1.30;1.00;;;;;;6286109;28;20529;-56
2023/01/21 06:50:16;;;;;;;21.43;14.57;;;1.50;1.00;;;;;;6267232;28;20651;-56
2023/01/21 06:53:19;;;;;;;21.97;16.20;;;1.30;1.00;;;;;;6280973;28;20228;-57
2023/01/21 06:56:24;;;;;;;19.83;14.93;;;1.40;1.00;;;;;;6285808;28;20400;-58
2023/01/21 06:59:27;;;;;;;21.93;15.40;;;1.40;1.00;;;;;;6287086;28;21012;-57
2023/01/21 07:02:30;;;;;;;23.63;14.90;;;1.40;1.00;;;;;;6292679;28;20437;-56
2023/01/21 07:05:33;;;;;;;22.07;15.43;;;1.40;1.00;;;;;;6275751;28;20244;-56
2023/01/21 07:08:36;;;;;;;24.07;15.23;;;1.20;1.00;;;;;;6277902;28;20244;-57
2023/01/21 07:11:41;;;;;;;21.07;15.10;;;1.30;1.00;;;;;;6282223;28;20730;-57
2023/01/21 07:14:44;;;;;;;21.47;15.20;;;1.30;1.00;;;;;;6281676;28;20237;-56
2023/01/21 07:17:47;;;;;;;21.33;16.60;;;1.40;1.00;;;;;;6284868;28;20234;-58
2023/01/21 07:20:50;;;;;;;19.60;16.30;;;1.20;1.00;;;;;;6284336;28;20351;-57
2023/01/21 07:23:54;;;;;;;20.50;15.87;;;1.30;1.00;;;;;;6281081;28;20290;-58
2023/01/21 07:26:58;;;;;;;25.03;17.30;;;1.60;1.00;;;;;;6288563;28;20552;-57
2023/01/21 07:30:01;;;;;;;20.27;16.73;;;1.40;1.00;;;;;;6283240;28;20709;-56
2023/01/21 07:33:08;;;;;;;21.83;17.07;;;1.30;1.00;;;;;;6301763;28;20235;-57
2023/01/21 07:36:11;;;;;;;20.70;17.37;;;1.20;1.00;;;;;;6287007;28;20248;-58
2023/01/21 07:39:14;;;;;;;24.37;17.33;;;1.30;1.00;;;;;;6276131;28;20423;-57
2023/01/21 07:42:19;;;;;;;24.37;18.03;;;1.50;1.00;;;;;;6281426;28;20241;-57
2023/01/21 07:45:22;;;;;;;20.73;16.73;;;1.60;1.00;;;;;;6278399;28;20733;-58
2023/01/21 07:48:25;;;;;;;23.77;18.10;;;1.50;1.00;;;;;;6276974;28;20285;-57
2023/01/21 07:51:28;;;;;;;24.33;18.40;;;1.70;1.00;;;;;;6279217;28;20225;-57
2023/01/21 07:54:31;;;;;;;23.67;17.80;;;1.30;1.00;;;;;;6279824;28;20260;-57
2023/01/21 07:57:36;;;;;;;24.97;18.80;;;1.50;1.00;;;;;;6276458;28;20248;-56
2023/01/21 08:00:39;;;;;;;26.37;19.33;;;1.50;1.00;;;;;;6280517;28;20403;-56
2023/01/21 08:03:42;;;;;;;22.53;18.13;;;1.70;1.00;;;;;;6286632;28;20244;-57
2023/01/21 08:06:45;;;;;;;21.20;18.03;;;1.50;1.00;;;;;;6276616;28;20242;-57
2023/01/21 08:09:48;;;;;;;24.70;17.57;;;1.80;1.00;;;;;;6284563;28;20609;-56
2023/01/21 08:12:52;;;;;;;21.40;17.07;;;1.60;1.00;;;;;;6281155;28;20233;-57
2023/01/21 08:15:57;;;;;;;21.43;17.00;;;1.50;1.00;;;;;;6281253;28;20926;-56
2023/01/21 08:19:00;;;;;;;23.10;17.50;;;1.40;1.00;;;;;;6282824;28;20287;-57
2023/01/21 08:22:03;;;;;;;20.43;16.80;;;1.40;1.00;;;;;;6263578;28;20232;-56
2023/01/21 08:25:07;;;;;;;22.87;16.97;;;1.60;1.00;;;;;;6273570;28;20717;-57
2023/01/21 08:28:13;;;;;;;24.80;16.70;;;1.50;1.00;;;;;;6279297;28;20482;-56
2023/01/21 08:31:16;;;;;;;19.53;15.37;;;1.70;1.00;;;;;;6284739;28;20316;-56
2023/01/21 08:34:19;;;;;;;21.33;15.83;;;1.60;1.00;;;;;;6282517;28;20339;-58
2023/01/21 08:37:22;;;;;;;23.90;16.83;;;1.70;1.00;;;;;;6276924;28;20604;-56
2023/01/21 08:40:26;;;;;;;20.17;14.87;;;2.00;1.00;;;;;;6280552;28;20311;-57
2023/01/21 08:43:31;;;;;;;20.73;15.53;;;1.70;1.00;;;;;;6285898;28;20263;-56
2023/01/21 08:46:34;;;;;;;18.13;16.23;;;1.90;1.00;;;;;;6286408;28;20328;-57
2023/01/21 08:49:38;;;;;;;21.97;16.87;;;1.80;1.00;;;;;;6290428;28;20248;-58
2023/01/21 08:52:41;;;;;;;17.77;14.67;;;2.10;1.00;;;;;;6292272;28;20255;-57
2023/01/21 08:55:44;;;;;;;20.00;15.10;;;1.90;1.00;;;;;;6286096;28;20244;-57
2023/01/21 08:58:48;;;;;;;17.43;14.27;;;2.10;1.00;;;;;;6282310;28;20629;-57
2023/01/21 09:01:51;;;;;;;19.03;15.80;;;1.90;1.00;;;;;;6284449;28;20233;-57
2023/01/21 09:04:54;;;;;;;21.83;15.43;;;2.00;1.00;;;;;;6284625;28;20356;-57
2023/01/21 09:07:57;;;;;;;16.77;14.97;;;2.10;1.00;;;;;;6283964;28;20316;-56
2023/01/21 09:11:01;;;;;;;21.93;15.83;;;2.20;1.00;;;;;;6285947;28;20257;-56
2023/01/21 09:14:06;;;;;;;19.90;15.87;;;2.00;1.00;;;;;;6285493;28;20237;-57
2023/01/21 09:17:09;;;;;;;18.80;15.27;;;2.40;1.00;;;;;;6285419;28;20233;-56
2023/01/21 09:20:13;;;;;;;17.37;14.40;;;2.30;1.00;;;;;;6287214;28;20370;-57
2023/01/21 09:23:25;;;;;;;19.70;16.13;;;2.30;1.00;;;;;;6291978;28;20323;-57
2023/01/21 09:26:28;;;;;;;21.67;15.53;;;2.40;1.00;;;;;;6281923;28;20721;-57
2023/01/21 09:29:32;;;;;;;17.97;14.93;;;2.50;1.00;;;;;;6284243;28;20229;-56
2023/01/21 09:32:36;;;;;;;15.90;14.30;;;2.30;1.00;;;;;;6291117;28;20732;-56
2023/01/21 09:35:39;;;;;;;17.97;14.50;;;2.30;1.00;;;;;;6290355;28;20229;-56
2023/01/21 09:38:42;;;;;;;19.80;15.27;;;2.40;1.00;;;;;;6282372;28;20722;-56
2023/01/21 09:41:50;;;;;;;19.63;15.73;;;2.40;1.00;;;;;;6283920;28;20233;-57
2023/01/21 09:44:57;;;;;;;18.57;15.00;;;2.30;1.00;;;;;;6284478;28;20245;-56
2023/01/21 09:48:02;;;;;;;17.87;15.07;;;2.50;1.00;;;;;;6284243;28;20432;-57
2023/01/21 09:51:13;;;;;;;17.00;14.87;;;2.60;1.00;;;;;;6283951;28;20623;-60
2023/01/21 09:54:24;;;;;;;19.47;16.27;;;2.60;1.00;;;;;;6284637;28;20611;-56
2023/01/21 09:57:50;;;;;;;20.60;15.30;;;2.80;1.00;;;;;;6287234;28;20556;-56
2023/01/21 10:01:02;;;;;;;17.93;14.43;;;2.80;1.00;;;;;;6280027;28;20245;-57
2023/01/21 10:04:28;;;;;;;19.43;14.67;;;2.50;1.00;;;;;;6288745;28;20244;-57
2023/01/21 10:07:36;;;;;;;19.07;15.10;;;2.80;1.00;;;;;;6283702;28;20374;-57
2023/01/21 10:10:46;;;;;;;21.87;15.80;;;2.70;1.00;;;;;;6276460;28;20249;-56
2023/01/21 10:14:08;;;;;;;17.97;15.37;;;2.70;1.00;;;;;;6288862;28;20597;-57
2023/01/21 10:17:16;;;;;;;24.13;15.40;;;2.70;1.00;;;;;;6284608;28;20840;-56
2023/01/21 10:20:24;;;;;;;21.97;14.70;;;3.10;1.00;;;;;;6275848;28;20248;-58
2023/01/21 10:23:31;;;;;;;19.83;15.40;;;2.80;1.00;;;;;;6283451;28;20233;-56
2023/01/21 10:26:35;;;;;;;17.60;14.13;;;2.90;1.00;;;;;;6281770;28;20618;-58
2023/01/21 10:29:40;;;;;;;19.03;14.70;;;2.90;1.00;;;;;;6272390;28;20613;-56
2023/01/21 10:32:46;;;;;;;15.93;14.23;;;3.00;1.00;;;;;;6286695;28;20790;-56
2023/01/21 10:36:12;;;;;;;19.20;15.03;;;2.90;1.00;;;;;;6288775;28;20234;-57
2023/01/21 10:39:26;;;;;;;19.60;15.50;;;3.00;1.00;;;;;;6278930;28;20493;-57
2023/01/21 10:42:44;;;;;;;18.97;14.07;;;2.80;1.00;;;;;;6284680;28;20240;-57
2023/01/21 10:45:55;;;;;;;20.47;14.70;;;3.20;1.00;;;;;;6289071;28;20241;-58
2023/01/21 10:49:09;;;;;;;18.80;14.03;;;3.30;1.00;;;;;;6280387;28;20630;-57
2023/01/21 10:52:19;;;;;;;20.83;14.17;;;3.30;1.00;;;;;;6284066;28;20748;-58
2023/01/21 10:55:28;;;;;;;16.27;13.27;;;3.10;1.00;;;;;;6280112;28;20244;-58
2023/01/21 10:58:36;;;;;;;18.03;14.40;;;3.40;1.00;;;;;;6281282;28;20364;-57
2023/01/21 11:01:42;;;;;;;16.53;13.77;;;3.20;1.00;;;;;;6289262;28;20245;-57
2023/01/21 11:04:47;;;;;;;16.80;13.67;;;3.20;1.00;;;;;;6277109;28;20240;-57
2023/01/21 11:07:50;;;;;;;19.37;13.53;;;3.30;1.00;;;;;;6283048;28;24798;-57
2023/01/21 11:10:54;;;;;;;15.07;13.47;;;3.20;1.00;;;;;;6283798;28;20245;-57
2023/01/21 11:13:58;;;;;;;15.33;13.73;;;3.50;1.00;;;;;;6283152;28;20241;-56
2023/01/21 11:17:01;;;;;;;14.63;12.70;;;3.30;1.00;;;;;;6279776;28;20828;-58
2023/01/21 11:20:16;;;;;;;14.77;13.27;;;3.60;1.00;;;;;;6274988;28;20248;-57
2023/01/21 11:23:27;;;;;;;14.97;13.37;;;3.40;1.00;;;;;;6280932;28;20225;-58
2023/01/21 11:26:32;;;;;;;17.00;12.60;;;3.60;1.00;;;;;;6280014;28;20613;-57
2023/01/21 11:29:41;;;;;;;15.53;13.80;;;3.50;1.00;;;;;;6278945;28;20617;-56
2023/01/21 11:32:44;;;;;;;16.03;13.70;;;3.50;1.00;;;;;;6286407;28;20233;-56
2023/01/21 11:35:49;;;;;;;14.30;12.80;;;3.50;1.00;;;;;;6281584;28;20233;-57
2023/01/21 11:39:01;;;;;;;14.90;13.07;;;3.70;1.00;;;;;;6278825;28;20236;-56
2023/01/21 11:42:07;;;;;;;16.10;14.07;;;3.60;1.00;;;;;;6281602;28;20232;-57
2023/01/21 11:45:26;;;;;;;17.00;13.17;;;3.50;1.00;;;;;;6284223;28;20233;-57
2023/01/21 11:48:29;;;;;;;16.83;12.67;;;3.90;1.00;;;;;;6267882;28;20248;-58
2023/01/21 11:51:35;;;;;;;15.40;13.23;;;4.00;1.00;;;;;;6272992;28;20233;-56
2023/01/21 11:54:39;;;;;;;14.50;12.70;;;3.70;1.00;;;;;;6277962;28;20238;-57
2023/01/21 11:57:45;;;;;;;14.03;12.57;;;3.70;1.00;;;;;;6286069;28;20313;-56
2023/01/21 12:00:51;;;;;;;18.37;12.93;;;3.80;1.00;;;;;;6276454;28;20854;-56
2023/01/21 12:03:58;;;;;;;14.87;13.37;;;4.00;1.00;;;;;;6282249;28;20785;-56
2023/01/21 12:07:05;;;;;;;14.50;12.83;;;3.70;1.00;;;;;;6274758;28;20225;-57
2023/01/21 12:10:23;;;;;;;13.57;12.17;;;3.80;1.00;;;;;;6277767;28;20671;-56
2023/01/21 12:13:34;;;;;;;12.73;11.40;;;3.90;1.00;;;;;;6280319;28;20359;-56
2023/01/21 12:16:40;;;;;;;12.97;11.53;;;3.80;1.00;;;;;;6278139;28;20229;-58
2023/01/21 12:19:53;;;;;;;13.17;11.87;;;4.10;1.00;;;;;;6290568;28;20240;-57
2023/01/21 12:23:18;;;;;;;12.40;11.20;;;4.00;1.00;;;;;;6294180;28;20225;-57
2023/01/21 12:26:34;;;;;;;12.60;10.30;;;4.10;1.00;;;;;;6283893;28;20252;-56
2023/01/21 12:29:48;;;;;;;11.57;10.43;;;4.10;1.00;;;;;;6279513;28;20613;-56
2023/01/21 12:32:57;;;;;;;10.90;9.80;;;4.50;1.00;;;;;;6284357;28;20233;-56
2023/01/21 12:36:05;;;;;;;11.13;10.03;;;4.10;1.00;;;;;;6286116;28;20233;-58
2023/01/21 12:39:21;;;;;;;11.10;10.00;;;4.40;1.00;;;;;;6277434;28;20669;-56
2023/01/21 12:42:32;;;;;;;9.73;8.93;;;4.50;1.00;;;;;;6287543;28;20320;-57
2023/01/21 12:45:41;;;;;;;11.13;9.87;;;4.70;1.00;;;;;;6287925;28;20233;-56
2023/01/21 12:48:48;;;;;;;9.93;9.13;;;4.40;1.00;;;;;;6283594;28;20241;-56
2023/01/21 12:51:56;;;;;;;8.80;8.17;;;4.60;1.00;;;;;;6291887;28;20232;-56
2023/01/21 12:55:07;;;;;;;9.20;8.40;;;4.60;1.00;;;;;;6285593;28;20467;-56
2023/01/21 12:58:14;;;;;;;11.27;10.17;;;4.60;1.00;;;;;;6280929;28;20241;-57
2023/01/21 13:01:35;;;;;;;7.87;7.17;;;4.60;1.00;;;;;;6286158;28;20316;-57
2023/01/21 13:04:45;;;;;;;9.53;7.80;;;4.40;1.00;;;;;;6288347;28;20230;-57
2023/01/21 13:07:53;;;;;;;8.33;7.67;;;4.40;1.00;;;;;;6285868;28;20380;-58
2023/01/21 13:11:02;;;;;;;7.60;7.10;;;4.60;1.00;;;;;;6277530;28;20229;-57
2023/01/21 13:14:22;;;;;;;7.60;7.10;;;4.40;1.00;;;;;;6278322;28;20225;-58
2023/01/21 13:17:29;;;;;;;7.70;7.10;;;4.70;1.00;;;;;;6285792;28;20738;-57
2023/01/21 13:20:37;;;;;;;7.80;7.10;;;4.50;1.00;;;;;;6283173;28;20232;-57
2023/01/21 13:23:45;;;;;;;12.67;7.97;;;4.30;1.00;;;;;;6294642;27;20232;-57
2023/01/21 13:26:58;;;;;;;7.90;7.20;;;4.40;1.00;;;;;;6287199;28;20249;-58
2023/01/21 13:30:09;;;;;;;10.30;8.23;;;4.50;1.00;;;;;;6284619;28;20810;-58
2023/01/21 13:33:33;;;;;;;7.60;7.07;;;4.50;1.00;;;;;;6280376;28;20833;-57
2023/01/21 13:36:59;;;;;;;7.57;7.07;;;4.70;1.00;;;;;;6283991;28;20238;-57
2023/01/21 13:40:21;;;;;;;7.97;7.33;;;4.40;1.00;;;;;;6274870;28;20598;-57
2023/01/21 13:43:44;;;;;;;8.20;7.40;;;4.50;1.00;;;;;;6276747;28;20240;-58
2023/01/21 13:46:58;;;;;;;7.43;6.83;;;4.50;1.00;;;;;;6277853;28;20344;-57
2023/01/21 13:50:15;;;;;;;10.67;7.93;;;4.50;1.00;;;;;;6279441;28;20229;-57
2023/01/21 13:53:35;;;;;;;7.57;6.87;;;4.40;1.00;;;;;;6292092;28;20315;-57
2023/01/21 13:56:52;;;;;;;7.20;6.70;;;4.40;1.00;;;;;;6287724;28;20281;-57
2023/01/21 13:59:59;;;;;;;7.93;7.33;;;4.60;1.00;;;;;;6285405;28;20373;-57
2023/01/21 14:03:12;;;;;;;9.80;7.23;;;4.50;1.00;;;;;;6296252;28;20723;-57
2023/01/21 14:06:23;;;;;;;7.97;7.33;;;4.50;1.00;;;;;;6283375;28;20224;-56
2023/01/21 14:09:30;;;;;;;6.67;6.30;;;4.20;1.00;;;;;;6283805;28;20783;-56
2023/01/21 14:13:01;;;;;;;7.17;6.60;;;4.30;1.00;;;;;;6279926;28;20487;-59
2023/01/21 14:16:31;;;;;;;6.87;6.30;;;4.30;1.00;;;;;;6278515;28;20232;-57
2023/01/21 14:20:05;;;;;;;7.00;6.57;;;4.30;1.00;;;;;;6280443;28;20471;-57
2023/01/21 14:23:31;;;;;;;7.33;6.67;;;4.30;1.00;;;;;;6256349;28;20259;-56
2023/01/21 14:27:05;;;;;;;7.20;6.50;;;4.10;1.00;;;;;;6284492;28;20582;-56
2023/01/21 14:30:14;;;;;;;7.00;6.30;;;4.30;1.00;;;;;;6279624;28;20233;-57
2023/01/21 14:33:22;;;;;;;7.13;6.50;;;4.40;1.00;;;;;;6289056;28;20240;-56
2023/01/21 14:36:36;;;;;;;6.33;6.00;;;4.10;1.00;;;;;;6283717;28;20343;-56
2023/01/21 14:39:51;;;;;;;6.00;5.70;;;4.10;1.00;;;;;;6275352;28;20276;-56
2023/01/21 14:42:54;;;;;;;5.80;5.40;;;4.00;1.00;;;;;;6282834;28;20241;-56
2023/01/21 14:45:59;;;;;;;5.53;5.13;;;4.40;1.00;;;;;;6286134;28;20233;-57
2023/01/21 14:49:07;;;;;;;5.53;5.10;;;4.10;1.00;;;;;;6283316;28;20604;-57
2023/01/21 14:52:14;;;;;;;5.07;4.90;;;4.10;1.00;;;;;;6281208;28;20221;-56
2023/01/21 14:55:27;;;;;;;6.00;5.50;;;4.30;1.00;;;;;;6283436;28;20221;-57
2023/01/21 14:58:30;;;;;;;4.90;4.50;;;4.20;1.00;;;;;;6287965;28;20244;-56
2023/01/21 15:01:40;;;;;;;4.27;4.17;;;4.00;1.00;;;;;;6277428;28;20248;-58
2023/01/21 15:04:53;;;;;;;5.27;4.73;;;4.00;1.00;;;;;;6287656;28;20240;-56
2023/01/21 15:08:07;;;;;;;5.20;4.90;;;4.20;1.00;;;;;;6282764;28;20620;-56
2023/01/21 15:11:20;;;;;;;5.00;4.73;;;4.10;1.00;;;;;;6281135;28;20313;-56
2023/01/21 15:14:26;;;;;;;4.97;4.37;;;3.90;1.00;;;;;;6285371;28;20332;-57
2023/01/21 15:18:02;;;;;;;4.93;4.60;;;4.00;1.00;;;;;;6285773;28;20224;-57
2023/01/21 15:21:42;;;;;;;4.77;4.47;;;3.90;1.00;;;;;;6277082;28;20387;-57
2023/01/21 15:25:21;;;;;;;4.43;4.23;;;3.70;1.00;;;;;;6274395;28;20678;-57
2023/01/21 15:28:40;;;;;;;4.83;4.57;;;3.70;1.00;;;;;;6287580;28;20233;-58
2023/01/21 15:31:44;;;;;;;4.53;4.33;;;3.80;1.00;;;;;;6282189;28;20237;-57
2023/01/21 15:34:49;;;;;;;5.17;4.97;;;3.50;1.00;;;;;;6290426;28;20233;-57
2023/01/21 15:38:01;;;;;;;4.70;4.40;;;3.30;1.00;;;;;;6284661;28;20237;-57
2023/01/21 15:41:12;;;;;;;4.50;4.20;;;3.60;1.00;;;;;;6282765;28;20541;-57
2023/01/21 15:44:35;;;;;;;4.40;4.20;;;3.30;1.00;;;;;;6289629;28;20228;-57
2023/01/21 15:47:58;;;;;;;4.67;4.47;;;3.40;1.00;;;;;;6282785;28;20236;-57
2023/01/21 15:51:06;;;;;;;4.83;4.53;;;3.20;1.00;;;;;;6289122;28;20229;-56
2023/01/21 15:54:30;;;;;;;4.90;4.70;;;2.90;1.00;;;;;;6283015;28;20241;-57
2023/01/21 15:57:44;;;;;;;5.17;4.90;;;3.20;1.00;;;;;;6280735;28;20226;-57
2023/01/21 16:00:54;;;;;;;5.33;5.13;;;2.90;1.00;;;;;;6274293;28;20241;-56
2023/01/21 16:04:25;;;;;;;5.60;5.30;;;2.80;1.00;;;;;;6294179;28;20656;-57
2023/01/21 16:07:38;;;;;;;5.50;5.30;;;2.50;1.00;;;;;;6281320;28;20233;-56
2023/01/21 16:10:54;;;;;;;5.73;5.23;;;2.70;1.00;;;;;;6274809;28;20427;-57
2023/01/21 16:14:08;;;;;;;5.93;5.57;;;2.80;1.00;;;;;;6286099;28;20229;-56
2023/01/21 16:17:19;;;;;;;6.47;5.73;;;2.70;1.00;;;;;;6289154;28;20252;-56
2023/01/21 16:20:22;;;;;;;5.57;5.10;;;2.70;1.00;;;;;;6279121;28;20335;-56
2023/01/21 16:23:30;;;;;;;6.43;5.33;;;2.20;1.00;;;;;;6286059;28;20252;-57
2023/01/21 16:26:35;;;;;;;5.63;5.43;;;2.40;1.00;;;;;;6281092;28;20344;-56